sensor_id;sensor_type;location;lat;lon;timestamp;P1;durP1;ratioP1;P2;durP2;ratioP2
62332;SDS011;48624;49.812;8.562;2022-08-21T00:01:55;10.88;;;7.55;;
62332;SDS011;48624;49.812;8.562;2022-08-21T00:04:21;8.18;;;6.82;;
62332;SDS011;48624;49.812;8.562;2022-08-21T00:06:47;9.77;;;7.40;;
62332;SDS011;48624;49.812;8.562;2022-08-21T00:09:12;8.82;;;6.85;;
62332;SDS011;48624;49.812;8.562;2022-08-21T00:11:37;10.15;;;7.22;;
62332;SDS011;48624;49.812;8.562;2022-08-21T00:14:04;9.10;;;6.82;;
62332;SDS011;48624;49.812;8.562;2022-08-21T00:16:30;8.90;;;6.90;;
62332;SDS011;48624;49.812;8.562;2022-08-21T00:18:56;9.93;;;6.85;;
62332;SDS011;48624;49.812;8.562;2022-08-21T00:21:22;8.13;;;6.85;;
62332;SDS011;48624;49.812;8.562;2022-08-21T00:23:47;7.25;;;6.03;;
62332;SDS011;48624;49.812;8.562;2022-08-21T00:26:12;8.80;;;6.63;;
62332;SDS011;48624;49.812;8.562;2022-08-21T00:28:38;10.07;;;7.40;;
62332;SDS011;48624;49.812;8.562;2022-08-21T00:31:03;13.30;;;7.97;;
62332;SDS011;48624;49.812;8.562;2022-08-21T00:33:31;8.60;;;7.00;;
62332;SDS011;48624;49.812;8.562;2022-08-21T00:35:58;8.13;;;6.40;;
62332;SDS011;48624;49.812;8.562;2022-08-21T00:38:23;8.75;;;6.65;;
62332;SDS011;48624;49.812;8.562;2022-08-21T00:40:50;10.05;;;7.18;;
62332;SDS011;48624;49.812;8.562;2022-08-21T00:43:22;8.05;;;7.22;;
62332;SDS011;48624;49.812;8.562;2022-08-21T00:45:51;9.38;;;7.00;;
62332;SDS011;48624;49.812;8.562;2022-08-21T00:48:18;8.45;;;7.18;;
62332;SDS011;48624;49.812;8.562;2022-08-21T00:50:46;9.48;;;7.68;;
62332;SDS011;48624;49.812;8.562;2022-08-21T00:53:17;10.50;;;7.30;;
62332;SDS011;48624;49.812;8.562;2022-08-21T00:55:42;10.68;;;7.78;;
62332;SDS011;48624;49.812;8.562;2022-08-21T00:58:09;12.05;;;6.45;;
62332;SDS011;48624;49.812;8.562;2022-08-21T01:00:39;8.93;;;7.28;;
62332;SDS011;48624;49.812;8.562;2022-08-21T01:03:07;9.20;;;7.65;;
62332;SDS011;48624;49.812;8.562;2022-08-21T01:05:35;10.82;;;8.10;;
62332;SDS011;48624;49.812;8.562;2022-08-21T01:08:00;9.95;;;7.53;;
62332;SDS011;48624;49.812;8.562;2022-08-21T01:10:26;10.15;;;8.30;;
62332;SDS011;48624;49.812;8.562;2022-08-21T01:12:52;9.02;;;7.43;;
62332;SDS011;48624;49.812;8.562;2022-08-21T01:15:19;10.13;;;8.05;;
62332;SDS011;48624;49.812;8.562;2022-08-21T01:17:48;9.18;;;7.15;;
62332;SDS011;48624;49.812;8.562;2022-08-21T01:20:14;10.77;;;8.23;;
62332;SDS011;48624;49.812;8.562;2022-08-21T01:22:39;9.43;;;8.15;;
62332;SDS011;48624;49.812;8.562;2022-08-21T01:25:05;10.25;;;8.02;;
62332;SDS011;48624;49.812;8.562;2022-08-21T01:27:32;10.95;;;8.52;;
62332;SDS011;48624;49.812;8.562;2022-08-21T01:29:59;12.50;;;9.30;;
62332;SDS011;48624;49.812;8.562;2022-08-21T01:32:32;11.93;;;9.35;;
62332;SDS011;48624;49.812;8.562;2022-08-21T01:34:58;10.55;;;8.43;;
62332;SDS011;48624;49.812;8.562;2022-08-21T01:37:23;12.52;;;9.02;;
62332;SDS011;48624;49.812;8.562;2022-08-21T01:39:49;11.63;;;8.80;;
62332;SDS011;48624;49.812;8.562;2022-08-21T01:42:14;10.23;;;7.85;;
62332;SDS011;48624;49.812;8.562;2022-08-21T01:44:39;10.60;;;8.68;;
62332;SDS011;48624;49.812;8.562;2022-08-21T01:47:07;9.77;;;8.15;;
62332;SDS011;48624;49.812;8.562;2022-08-21T01:49:34;10.73;;;8.77;;
62332;SDS011;48624;49.812;8.562;2022-08-21T01:52:01;10.45;;;8.98;;
62332;SDS011;48624;49.812;8.562;2022-08-21T01:54:26;10.90;;;9.02;;
62332;SDS011;48624;49.812;8.562;2022-08-21T01:56:52;9.55;;;8.43;;
62332;SDS011;48624;49.812;8.562;2022-08-21T01:59:19;10.57;;;7.63;;
62332;SDS011;48624;49.812;8.562;2022-08-21T02:01:46;10.40;;;7.43;;
62332;SDS011;48624;49.812;8.562;2022-08-21T02:04:11;13.50;;;8.73;;
62332;SDS011;48624;49.812;8.562;2022-08-21T02:06:37;10.38;;;8.85;;
62332;SDS011;48624;49.812;8.562;2022-08-21T02:09:03;11.90;;;9.02;;
62332;SDS011;48624;49.812;8.562;2022-08-21T02:11:31;9.50;;;7.40;;
62332;SDS011;48624;49.812;8.562;2022-08-21T02:13:56;9.20;;;7.70;;
62332;SDS011;48624;49.812;8.562;2022-08-21T02:16:22;13.10;;;8.48;;
62332;SDS011;48624;49.812;8.562;2022-08-21T02:18:47;10.50;;;8.77;;
62332;SDS011;48624;49.812;8.562;2022-08-21T02:21:12;9.02;;;8.02;;
62332;SDS011;48624;49.812;8.562;2022-08-21T02:23:37;12.20;;;8.20;;
62332;SDS011;48624;49.812;8.562;2022-08-21T02:26:04;10.25;;;7.85;;
62332;SDS011;48624;49.812;8.562;2022-08-21T02:28:31;10.30;;;8.02;;
62332;SDS011;48624;49.812;8.562;2022-08-21T02:30:59;8.75;;;7.57;;
62332;SDS011;48624;49.812;8.562;2022-08-21T02:33:25;11.35;;;8.75;;
62332;SDS011;48624;49.812;8.562;2022-08-21T02:35:51;13.27;;;8.40;;
62332;SDS011;48624;49.812;8.562;2022-08-21T02:38:18;9.90;;;8.20;;
62332;SDS011;48624;49.812;8.562;2022-08-21T02:40:47;11.15;;;7.68;;
62332;SDS011;48624;49.812;8.562;2022-08-21T02:43:14;11.88;;;8.18;;
62332;SDS011;48624;49.812;8.562;2022-08-21T02:45:40;9.15;;;8.23;;
62332;SDS011;48624;49.812;8.562;2022-08-21T02:48:07;9.73;;;8.35;;
62332;SDS011;48624;49.812;8.562;2022-08-21T02:50:35;11.38;;;8.75;;
62332;SDS011;48624;49.812;8.562;2022-08-21T02:53:03;9.90;;;8.80;;
62332;SDS011;48624;49.812;8.562;2022-08-21T02:55:31;13.25;;;8.65;;
62332;SDS011;48624;49.812;8.562;2022-08-21T02:57:58;11.60;;;8.13;;
62332;SDS011;48624;49.812;8.562;2022-08-21T03:00:24;10.25;;;7.82;;
62332;SDS011;48624;49.812;8.562;2022-08-21T03:02:51;10.05;;;8.60;;
62332;SDS011;48624;49.812;8.562;2022-08-21T03:05:18;11.50;;;8.40;;
62332;SDS011;48624;49.812;8.562;2022-08-21T03:07:44;11.20;;;9.00;;
62332;SDS011;48624;49.812;8.562;2022-08-21T03:10:12;10.00;;;9.02;;
62332;SDS011;48624;49.812;8.562;2022-08-21T03:12:38;9.98;;;8.57;;
62332;SDS011;48624;49.812;8.562;2022-08-21T03:15:04;10.05;;;8.43;;
62332;SDS011;48624;49.812;8.562;2022-08-21T03:17:32;11.32;;;8.13;;
62332;SDS011;48624;49.812;8.562;2022-08-21T03:19:57;11.80;;;8.77;;
62332;SDS011;48624;49.812;8.562;2022-08-21T03:22:23;10.63;;;9.27;;
62332;SDS011;48624;49.812;8.562;2022-08-21T03:24:49;10.50;;;8.18;;
62332;SDS011;48624;49.812;8.562;2022-08-21T03:27:16;13.20;;;8.80;;
62332;SDS011;48624;49.812;8.562;2022-08-21T03:29:41;13.27;;;8.52;;
62332;SDS011;48624;49.812;8.562;2022-08-21T03:32:06;15.27;;;10.35;;
62332;SDS011;48624;49.812;8.562;2022-08-21T03:34:34;12.45;;;8.70;;
62332;SDS011;48624;49.812;8.562;2022-08-21T03:37:00;13.85;;;9.80;;
62332;SDS011;48624;49.812;8.562;2022-08-21T03:39:25;11.48;;;9.15;;
62332;SDS011;48624;49.812;8.562;2022-08-21T03:41:50;14.75;;;10.05;;
62332;SDS011;48624;49.812;8.562;2022-08-21T03:44:17;12.50;;;9.25;;
62332;SDS011;48624;49.812;8.562;2022-08-21T03:46:43;10.23;;;7.93;;
62332;SDS011;48624;49.812;8.562;2022-08-21T03:49:08;16.60;;;10.75;;
62332;SDS011;48624;49.812;8.562;2022-08-21T03:51:33;13.02;;;9.35;;
62332;SDS011;48624;49.812;8.562;2022-08-21T03:54:00;14.18;;;10.25;;
62332;SDS011;48624;49.812;8.562;2022-08-21T03:56:25;11.10;;;9.40;;
62332;SDS011;48624;49.812;8.562;2022-08-21T03:58:51;10.85;;;9.75;;
62332;SDS011;48624;49.812;8.562;2022-08-21T04:01:16;11.60;;;9.32;;
62332;SDS011;48624;49.812;8.562;2022-08-21T04:03:41;11.27;;;9.50;;
62332;SDS011;48624;49.812;8.562;2022-08-21T04:06:07;13.23;;;9.45;;
62332;SDS011;48624;49.812;8.562;2022-08-21T04:08:32;15.82;;;10.70;;
62332;SDS011;48624;49.812;8.562;2022-08-21T04:10:58;10.45;;;8.20;;
62332;SDS011;48624;49.812;8.562;2022-08-21T04:13:24;10.65;;;8.60;;
62332;SDS011;48624;49.812;8.562;2022-08-21T04:15:51;9.40;;;8.23;;
62332;SDS011;48624;49.812;8.562;2022-08-21T04:18:17;10.20;;;8.48;;
62332;SDS011;48624;49.812;8.562;2022-08-21T04:20:43;8.95;;;7.63;;
62332;SDS011;48624;49.812;8.562;2022-08-21T04:23:11;11.23;;;8.52;;
62332;SDS011;48624;49.812;8.562;2022-08-21T04:25:36;10.90;;;8.38;;
62332;SDS011;48624;49.812;8.562;2022-08-21T04:28:03;13.60;;;8.48;;
62332;SDS011;48624;49.812;8.562;2022-08-21T04:30:28;14.23;;;8.23;;
62332;SDS011;48624;49.812;8.562;2022-08-21T04:32:55;13.98;;;8.20;;
62332;SDS011;48624;49.812;8.562;2022-08-21T04:35:22;12.13;;;7.75;;
62332;SDS011;48624;49.812;8.562;2022-08-21T04:37:49;10.30;;;8.68;;
62332;SDS011;48624;49.812;8.562;2022-08-21T04:40:15;11.00;;;7.78;;
62332;SDS011;48624;49.812;8.562;2022-08-21T04:42:42;9.40;;;7.38;;
62332;SDS011;48624;49.812;8.562;2022-08-21T04:45:19;8.52;;;7.57;;
62332;SDS011;48624;49.812;8.562;2022-08-21T04:47:46;12.07;;;7.85;;
62332;SDS011;48624;49.812;8.562;2022-08-21T04:50:12;11.30;;;8.23;;
62332;SDS011;48624;49.812;8.562;2022-08-21T04:52:38;10.73;;;7.68;;
62332;SDS011;48624;49.812;8.562;2022-08-21T04:55:03;12.45;;;8.35;;
62332;SDS011;48624;49.812;8.562;2022-08-21T04:57:29;10.77;;;8.40;;
62332;SDS011;48624;49.812;8.562;2022-08-21T04:59:54;9.35;;;7.53;;
62332;SDS011;48624;49.812;8.562;2022-08-21T05:02:19;13.27;;;8.63;;
62332;SDS011;48624;49.812;8.562;2022-08-21T05:04:50;8.20;;;7.40;;
62332;SDS011;48624;49.812;8.562;2022-08-21T05:07:25;9.32;;;7.07;;
62332;SDS011;48624;49.812;8.562;2022-08-21T05:09:53;11.32;;;8.30;;
62332;SDS011;48624;49.812;8.562;2022-08-21T05:12:18;8.75;;;7.78;;
62332;SDS011;48624;49.812;8.562;2022-08-21T05:14:43;13.43;;;8.23;;
62332;SDS011;48624;49.812;8.562;2022-08-21T05:17:09;10.95;;;8.27;;
62332;SDS011;48624;49.812;8.562;2022-08-21T05:19:35;10.90;;;7.28;;
62332;SDS011;48624;49.812;8.562;2022-08-21T05:22:00;11.30;;;7.82;;
62332;SDS011;48624;49.812;8.562;2022-08-21T05:24:26;12.38;;;8.63;;
62332;SDS011;48624;49.812;8.562;2022-08-21T05:26:52;12.43;;;8.63;;
62332;SDS011;48624;49.812;8.562;2022-08-21T05:29:17;8.35;;;7.22;;
62332;SDS011;48624;49.812;8.562;2022-08-21T05:31:44;10.80;;;8.60;;
62332;SDS011;48624;49.812;8.562;2022-08-21T05:34:10;10.90;;;8.05;;
62332;SDS011;48624;49.812;8.562;2022-08-21T05:36:35;9.38;;;8.35;;
62332;SDS011;48624;49.812;8.562;2022-08-21T05:39:00;17.65;;;8.38;;
62332;SDS011;48624;49.812;8.562;2022-08-21T05:41:27;14.50;;;9.32;;
62332;SDS011;48624;49.812;8.562;2022-08-21T05:43:52;11.68;;;9.20;;
62332;SDS011;48624;49.812;8.562;2022-08-21T05:46:17;10.57;;;9.05;;
62332;SDS011;48624;49.812;8.562;2022-08-21T05:48:42;9.98;;;8.57;;
62332;SDS011;48624;49.812;8.562;2022-08-21T05:51:09;11.50;;;9.30;;
62332;SDS011;48624;49.812;8.562;2022-08-21T05:53:36;10.80;;;9.00;;
62332;SDS011;48624;49.812;8.562;2022-08-21T05:56:02;12.77;;;9.02;;
62332;SDS011;48624;49.812;8.562;2022-08-21T05:58:29;10.80;;;8.80;;
62332;SDS011;48624;49.812;8.562;2022-08-21T06:00:55;11.10;;;9.15;;
62332;SDS011;48624;49.812;8.562;2022-08-21T06:03:22;11.73;;;9.20;;
62332;SDS011;48624;49.812;8.562;2022-08-21T06:05:49;10.30;;;9.20;;
62332;SDS011;48624;49.812;8.562;2022-08-21T06:08:15;10.88;;;9.10;;
62332;SDS011;48624;49.812;8.562;2022-08-21T06:10:42;9.73;;;7.63;;
62332;SDS011;48624;49.812;8.562;2022-08-21T06:13:08;12.35;;;9.15;;
62332;SDS011;48624;49.812;8.562;2022-08-21T06:15:33;12.18;;;9.15;;
62332;SDS011;48624;49.812;8.562;2022-08-21T06:17:59;10.93;;;7.78;;
62332;SDS011;48624;49.812;8.562;2022-08-21T06:20:24;10.80;;;7.50;;
62332;SDS011;48624;49.812;8.562;2022-08-21T06:22:50;9.73;;;7.70;;
62332;SDS011;48624;49.812;8.562;2022-08-21T06:25:15;10.32;;;6.68;;
62332;SDS011;48624;49.812;8.562;2022-08-21T06:27:41;8.23;;;6.75;;
62332;SDS011;48624;49.812;8.562;2022-08-21T06:30:06;13.77;;;7.30;;
62332;SDS011;48624;49.812;8.562;2022-08-21T06:32:32;11.38;;;7.25;;
62332;SDS011;48624;49.812;8.562;2022-08-21T06:34:58;9.35;;;6.75;;
62332;SDS011;48624;49.812;8.562;2022-08-21T06:37:23;10.43;;;6.45;;
62332;SDS011;48624;49.812;8.562;2022-08-21T06:39:48;6.97;;;6.28;;
62332;SDS011;48624;49.812;8.562;2022-08-21T06:42:14;8.70;;;6.22;;
62332;SDS011;48624;49.812;8.562;2022-08-21T06:44:41;9.45;;;6.78;;
62332;SDS011;48624;49.812;8.562;2022-08-21T06:47:06;8.30;;;5.97;;
62332;SDS011;48624;49.812;8.562;2022-08-21T06:49:31;8.27;;;6.00;;
62332;SDS011;48624;49.812;8.562;2022-08-21T06:51:57;11.38;;;7.10;;
62332;SDS011;48624;49.812;8.562;2022-08-21T06:54:22;8.60;;;5.82;;
62332;SDS011;48624;49.812;8.562;2022-08-21T06:56:47;10.00;;;7.20;;
62332;SDS011;48624;49.812;8.562;2022-08-21T06:59:12;16.05;;;7.32;;
62332;SDS011;48624;49.812;8.562;2022-08-21T07:01:38;8.32;;;5.95;;
62332;SDS011;48624;49.812;8.562;2022-08-21T07:04:04;13.43;;;6.80;;
62332;SDS011;48624;49.812;8.562;2022-08-21T07:06:29;9.75;;;5.95;;
62332;SDS011;48624;49.812;8.562;2022-08-21T07:08:55;11.98;;;5.88;;
62332;SDS011;48624;49.812;8.562;2022-08-21T07:11:21;9.18;;;5.25;;
62332;SDS011;48624;49.812;8.562;2022-08-21T07:13:48;11.77;;;5.65;;
62332;SDS011;48624;49.812;8.562;2022-08-21T07:16:15;7.72;;;5.47;;
62332;SDS011;48624;49.812;8.562;2022-08-21T07:18:41;8.55;;;4.50;;
62332;SDS011;48624;49.812;8.562;2022-08-21T07:21:06;13.18;;;5.20;;
62332;SDS011;48624;49.812;8.562;2022-08-21T07:23:33;7.90;;;4.40;;
62332;SDS011;48624;49.812;8.562;2022-08-21T07:26:03;8.80;;;5.72;;
62332;SDS011;48624;49.812;8.562;2022-08-21T07:28:32;10.10;;;5.22;;
62332;SDS011;48624;49.812;8.562;2022-08-21T07:30:58;12.80;;;5.75;;
62332;SDS011;48624;49.812;8.562;2022-08-21T07:33:25;10.40;;;5.80;;
62332;SDS011;48624;49.812;8.562;2022-08-21T07:35:52;12.32;;;6.05;;
62332;SDS011;48624;49.812;8.562;2022-08-21T07:38:17;10.27;;;6.28;;
62332;SDS011;48624;49.812;8.562;2022-08-21T07:40:44;12.68;;;5.70;;
62332;SDS011;48624;49.812;8.562;2022-08-21T07:43:10;10.85;;;5.55;;
62332;SDS011;48624;49.812;8.562;2022-08-21T07:45:36;12.45;;;6.03;;
62332;SDS011;48624;49.812;8.562;2022-08-21T07:48:02;11.63;;;5.32;;
62332;SDS011;48624;49.812;8.562;2022-08-21T07:50:28;10.02;;;5.15;;
62332;SDS011;48624;49.812;8.562;2022-08-21T07:52:56;8.43;;;5.65;;
62332;SDS011;48624;49.812;8.562;2022-08-21T07:55:21;11.80;;;6.75;;
62332;SDS011;48624;49.812;8.562;2022-08-21T07:57:47;9.88;;;5.95;;
62332;SDS011;48624;49.812;8.562;2022-08-21T08:00:17;10.43;;;6.00;;
62332;SDS011;48624;49.812;8.562;2022-08-21T08:02:45;12.60;;;6.20;;
62332;SDS011;48624;49.812;8.562;2022-08-21T08:05:32;9.48;;;5.80;;
62332;SDS011;48624;49.812;8.562;2022-08-21T08:07:58;10.23;;;6.13;;
62332;SDS011;48624;49.812;8.562;2022-08-21T08:10:23;11.00;;;5.93;;
62332;SDS011;48624;49.812;8.562;2022-08-21T08:12:50;12.65;;;6.85;;
62332;SDS011;48624;49.812;8.562;2022-08-21T08:15:18;11.20;;;5.85;;
62332;SDS011;48624;49.812;8.562;2022-08-21T08:17:46;13.05;;;6.32;;
62332;SDS011;48624;49.812;8.562;2022-08-21T08:20:12;8.88;;;6.55;;
62332;SDS011;48624;49.812;8.562;2022-08-21T08:22:39;10.02;;;6.53;;
62332;SDS011;48624;49.812;8.562;2022-08-21T08:25:06;11.05;;;7.43;;
62332;SDS011;48624;49.812;8.562;2022-08-21T08:27:33;8.18;;;7.20;;
62332;SDS011;48624;49.812;8.562;2022-08-21T08:29:58;11.65;;;8.10;;
62332;SDS011;48624;49.812;8.562;2022-08-21T08:32:24;13.93;;;8.60;;
62332;SDS011;48624;49.812;8.562;2022-08-21T08:34:49;9.98;;;8.65;;
62332;SDS011;48624;49.812;8.562;2022-08-21T08:37:17;11.98;;;7.60;;
62332;SDS011;48624;49.812;8.562;2022-08-21T08:39:44;10.52;;;7.15;;
62332;SDS011;48624;49.812;8.562;2022-08-21T08:42:13;9.25;;;7.30;;
62332;SDS011;48624;49.812;8.562;2022-08-21T08:44:44;9.32;;;6.63;;
62332;SDS011;48624;49.812;8.562;2022-08-21T08:47:11;10.75;;;6.88;;
62332;SDS011;48624;49.812;8.562;2022-08-21T08:49:42;8.40;;;6.90;;
62332;SDS011;48624;49.812;8.562;2022-08-21T08:55:00;11.45;;;6.82;;
62332;SDS011;48624;49.812;8.562;2022-08-21T08:57:31;9.63;;;6.97;;
62332;SDS011;48624;49.812;8.562;2022-08-21T08:59:59;10.63;;;6.43;;
62332;SDS011;48624;49.812;8.562;2022-08-21T09:02:27;8.93;;;5.97;;
62332;SDS011;48624;49.812;8.562;2022-08-21T09:04:53;12.43;;;6.38;;
62332;SDS011;48624;49.812;8.562;2022-08-21T09:07:28;5.97;;;5.32;;
62332;SDS011;48624;49.812;8.562;2022-08-21T09:10:18;12.98;;;7.53;;
62332;SDS011;48624;49.812;8.562;2022-08-21T09:15:55;8.80;;;6.78;;
62332;SDS011;48624;49.812;8.562;2022-08-21T09:27:02;10.82;;;6.55;;
62332;SDS011;48624;49.812;8.562;2022-08-21T09:29:30;9.75;;;6.07;;
62332;SDS011;48624;49.812;8.562;2022-08-21T09:31:58;6.40;;;5.20;;
62332;SDS011;48624;49.812;8.562;2022-08-21T09:34:26;7.65;;;5.05;;
62332;SDS011;48624;49.812;8.562;2022-08-21T09:36:53;7.95;;;4.60;;
62332;SDS011;48624;49.812;8.562;2022-08-21T09:39:27;7.65;;;3.95;;
62332;SDS011;48624;49.812;8.562;2022-08-21T09:42:01;9.07;;;4.00;;
62332;SDS011;48624;49.812;8.562;2022-08-21T09:44:31;7.72;;;3.45;;
62332;SDS011;48624;49.812;8.562;2022-08-21T09:46:58;6.45;;;3.53;;
62332;SDS011;48624;49.812;8.562;2022-08-21T09:49:31;9.07;;;3.15;;
62332;SDS011;48624;49.812;8.562;2022-08-21T09:51:59;11.38;;;3.97;;
62332;SDS011;48624;49.812;8.562;2022-08-21T09:54:29;6.65;;;3.97;;
62332;SDS011;48624;49.812;8.562;2022-08-21T09:56:58;8.50;;;4.18;;
62332;SDS011;48624;49.812;8.562;2022-08-21T09:59:48;6.93;;;3.85;;
62332;SDS011;48624;49.812;8.562;2022-08-21T10:02:22;8.18;;;3.95;;
62332;SDS011;48624;49.812;8.562;2022-08-21T10:04:52;8.57;;;3.75;;
62332;SDS011;48624;49.812;8.562;2022-08-21T10:07:25;8.27;;;3.75;;
62332;SDS011;48624;49.812;8.562;2022-08-21T10:09:59;6.22;;;3.40;;
62332;SDS011;48624;49.812;8.562;2022-08-21T10:18:21;7.95;;;3.67;;
62332;SDS011;48624;49.812;8.562;2022-08-21T10:20:56;9.05;;;3.40;;
62332;SDS011;48624;49.812;8.562;2022-08-21T10:26:22;8.57;;;3.25;;
62332;SDS011;48624;49.812;8.562;2022-08-21T10:32:00;4.20;;;3.45;;
62332;SDS011;48624;49.812;8.562;2022-08-21T10:43:26;4.40;;;2.78;;
62332;SDS011;48624;49.812;8.562;2022-08-21T10:46:02;6.40;;;3.05;;
62332;SDS011;48624;49.812;8.562;2022-08-21T10:48:37;8.90;;;3.78;;
62332;SDS011;48624;49.812;8.562;2022-08-21T10:53:51;4.93;;;2.70;;
62332;SDS011;48624;49.812;8.562;2022-08-21T10:56:38;7.15;;;3.40;;
62332;SDS011;48624;49.812;8.562;2022-08-21T11:01:48;5.35;;;2.85;;
62332;SDS011;48624;49.812;8.562;2022-08-21T11:04:35;11.60;;;3.20;;
62332;SDS011;48624;49.812;8.562;2022-08-21T11:07:15;6.00;;;2.60;;
62332;SDS011;48624;49.812;8.562;2022-08-21T11:09:45;6.15;;;2.78;;
62332;SDS011;48624;49.812;8.562;2022-08-21T11:12:24;7.28;;;3.28;;
62332;SDS011;48624;49.812;8.562;2022-08-21T11:17:44;5.65;;;3.15;;
62332;SDS011;48624;49.812;8.562;2022-08-21T11:23:04;5.80;;;3.10;;
62332;SDS011;48624;49.812;8.562;2022-08-21T11:25:37;4.40;;;2.47;;
62332;SDS011;48624;49.812;8.562;2022-08-21T11:28:22;6.28;;;3.13;;
62332;SDS011;48624;49.812;8.562;2022-08-21T11:33:56;5.05;;;2.88;;
62332;SDS011;48624;49.812;8.562;2022-08-21T11:39:22;5.18;;;2.67;;
62332;SDS011;48624;49.812;8.562;2022-08-21T11:44:30;5.65;;;2.58;;
62332;SDS011;48624;49.812;8.562;2022-08-21T11:47:12;4.40;;;2.75;;
62332;SDS011;48624;49.812;8.562;2022-08-21T11:50:05;4.82;;;2.20;;
62332;SDS011;48624;49.812;8.562;2022-08-21T11:52:40;5.47;;;2.80;;
62332;SDS011;48624;49.812;8.562;2022-08-21T11:55:36;4.60;;;2.75;;
62332;SDS011;48624;49.812;8.562;2022-08-21T11:58:21;5.53;;;2.90;;
62332;SDS011;48624;49.812;8.562;2022-08-21T12:00:52;5.10;;;2.67;;
62332;SDS011;48624;49.812;8.562;2022-08-21T12:03:25;8.38;;;2.97;;
62332;SDS011;48624;49.812;8.562;2022-08-21T12:05:56;6.38;;;3.08;;
62332;SDS011;48624;49.812;8.562;2022-08-21T12:08:27;5.13;;;2.47;;
62332;SDS011;48624;49.812;8.562;2022-08-21T12:11:02;5.75;;;3.05;;
62332;SDS011;48624;49.812;8.562;2022-08-21T12:13:30;6.18;;;2.65;;
62332;SDS011;48624;49.812;8.562;2022-08-21T12:16:08;4.18;;;2.83;;
62332;SDS011;48624;49.812;8.562;2022-08-21T12:18:39;4.13;;;2.53;;
62332;SDS011;48624;49.812;8.562;2022-08-21T12:21:27;4.72;;;2.67;;
62332;SDS011;48624;49.812;8.562;2022-08-21T12:24:01;7.13;;;3.17;;
62332;SDS011;48624;49.812;8.562;2022-08-21T12:29:17;4.80;;;2.08;;
62332;SDS011;48624;49.812;8.562;2022-08-21T12:32:19;6.38;;;2.70;;
62332;SDS011;48624;49.812;8.562;2022-08-21T12:35:21;5.95;;;2.42;;
62332;SDS011;48624;49.812;8.562;2022-08-21T12:37:57;4.22;;;2.63;;
62332;SDS011;48624;49.812;8.562;2022-08-21T12:40:46;4.13;;;2.70;;
62332;SDS011;48624;49.812;8.562;2022-08-21T12:43:20;3.53;;;2.50;;
62332;SDS011;48624;49.812;8.562;2022-08-21T12:45:51;4.55;;;2.70;;
62332;SDS011;48624;49.812;8.562;2022-08-21T12:48:18;3.60;;;2.20;;
62332;SDS011;48624;49.812;8.562;2022-08-21T12:51:07;10.85;;;2.63;;
62332;SDS011;48624;49.812;8.562;2022-08-21T12:53:41;4.63;;;2.78;;
62332;SDS011;48624;49.812;8.562;2022-08-21T12:56:27;4.50;;;2.65;;
62332;SDS011;48624;49.812;8.562;2022-08-21T12:58:56;6.15;;;2.65;;
62332;SDS011;48624;49.812;8.562;2022-08-21T13:01:31;5.50;;;2.67;;
62332;SDS011;48624;49.812;8.562;2022-08-21T13:04:01;4.03;;;2.35;;
62332;SDS011;48624;49.812;8.562;2022-08-21T13:06:29;5.75;;;2.58;;
62332;SDS011;48624;49.812;8.562;2022-08-21T13:09:04;4.65;;;3.03;;
62332;SDS011;48624;49.812;8.562;2022-08-21T13:11:32;5.13;;;2.67;;
62332;SDS011;48624;49.812;8.562;2022-08-21T13:13:58;5.00;;;2.47;;
62332;SDS011;48624;49.812;8.562;2022-08-21T13:16:27;4.78;;;2.63;;
62332;SDS011;48624;49.812;8.562;2022-08-21T13:19:05;5.82;;;2.60;;
62332;SDS011;48624;49.812;8.562;2022-08-21T13:21:33;4.45;;;2.47;;
62332;SDS011;48624;49.812;8.562;2022-08-21T13:24:09;5.78;;;2.75;;
62332;SDS011;48624;49.812;8.562;2022-08-21T13:26:38;4.10;;;2.10;;
62332;SDS011;48624;49.812;8.562;2022-08-21T13:29:10;3.92;;;2.28;;
62332;SDS011;48624;49.812;8.562;2022-08-21T13:31:37;4.53;;;2.80;;
62332;SDS011;48624;49.812;8.562;2022-08-21T13:34:07;5.57;;;2.95;;
62332;SDS011;48624;49.812;8.562;2022-08-21T13:36:36;4.22;;;2.30;;
62332;SDS011;48624;49.812;8.562;2022-08-21T13:39:06;5.60;;;2.47;;
62332;SDS011;48624;49.812;8.562;2022-08-21T13:41:34;3.95;;;2.65;;
62332;SDS011;48624;49.812;8.562;2022-08-21T13:44:14;4.00;;;2.70;;
62332;SDS011;48624;49.812;8.562;2022-08-21T13:46:45;5.63;;;2.47;;
62332;SDS011;48624;49.812;8.562;2022-08-21T13:49:13;4.90;;;2.63;;
62332;SDS011;48624;49.812;8.562;2022-08-21T13:51:42;5.07;;;2.60;;
62332;SDS011;48624;49.812;8.562;2022-08-21T13:56:55;4.28;;;2.35;;
62332;SDS011;48624;49.812;8.562;2022-08-21T13:59:31;6.03;;;2.78;;
62332;SDS011;48624;49.812;8.562;2022-08-21T14:02:14;4.95;;;2.45;;
62332;SDS011;48624;49.812;8.562;2022-08-21T14:07:24;6.40;;;2.80;;
62332;SDS011;48624;49.812;8.562;2022-08-21T14:09:54;3.55;;;2.15;;
62332;SDS011;48624;49.812;8.562;2022-08-21T14:12:25;5.50;;;2.35;;
62332;SDS011;48624;49.812;8.562;2022-08-21T14:15:04;4.47;;;2.30;;
62332;SDS011;48624;49.812;8.562;2022-08-21T14:17:36;3.70;;;2.15;;
62332;SDS011;48624;49.812;8.562;2022-08-21T14:20:05;3.40;;;1.85;;
62332;SDS011;48624;49.812;8.562;2022-08-21T14:27:48;3.72;;;1.90;;
62332;SDS011;48624;49.812;8.562;2022-08-21T14:32:49;3.30;;;1.85;;
62332;SDS011;48624;49.812;8.562;2022-08-21T14:35:15;3.28;;;1.80;;
62332;SDS011;48624;49.812;8.562;2022-08-21T14:37:43;4.57;;;2.33;;
62332;SDS011;48624;49.812;8.562;2022-08-21T14:40:10;5.35;;;2.55;;
62332;SDS011;48624;49.812;8.562;2022-08-21T14:42:42;3.78;;;2.17;;
62332;SDS011;48624;49.812;8.562;2022-08-21T14:45:28;6.13;;;1.90;;
62332;SDS011;48624;49.812;8.562;2022-08-21T14:47:56;5.97;;;2.40;;
62332;SDS011;48624;49.812;8.562;2022-08-21T14:50:23;3.53;;;2.13;;
62332;SDS011;48624;49.812;8.562;2022-08-21T14:52:52;4.70;;;2.00;;
62332;SDS011;48624;49.812;8.562;2022-08-21T14:55:17;4.90;;;2.20;;
62332;SDS011;48624;49.812;8.562;2022-08-21T14:57:50;3.75;;;2.13;;
62332;SDS011;48624;49.812;8.562;2022-08-21T15:00:19;3.33;;;1.40;;
62332;SDS011;48624;49.812;8.562;2022-08-21T15:02:50;2.88;;;2.00;;
62332;SDS011;48624;49.812;8.562;2022-08-21T15:05:16;5.28;;;2.80;;
62332;SDS011;48624;49.812;8.562;2022-08-21T15:07:42;4.45;;;2.05;;
62332;SDS011;48624;49.812;8.562;2022-08-21T15:10:09;4.13;;;1.92;;
62332;SDS011;48624;49.812;8.562;2022-08-21T15:12:37;4.05;;;2.22;;
62332;SDS011;48624;49.812;8.562;2022-08-21T15:15:05;4.55;;;1.92;;
62332;SDS011;48624;49.812;8.562;2022-08-21T15:17:32;4.25;;;1.70;;
62332;SDS011;48624;49.812;8.562;2022-08-21T15:19:57;4.90;;;2.10;;
62332;SDS011;48624;49.812;8.562;2022-08-21T15:22:22;3.50;;;1.70;;
62332;SDS011;48624;49.812;8.562;2022-08-21T15:24:48;3.78;;;1.95;;
62332;SDS011;48624;49.812;8.562;2022-08-21T15:27:13;4.30;;;2.08;;
62332;SDS011;48624;49.812;8.562;2022-08-21T15:29:42;5.68;;;1.92;;
62332;SDS011;48624;49.812;8.562;2022-08-21T15:32:19;4.07;;;2.00;;
62332;SDS011;48624;49.812;8.562;2022-08-21T15:34:55;4.10;;;2.25;;
62332;SDS011;48624;49.812;8.562;2022-08-21T15:42:39;4.60;;;1.90;;
62332;SDS011;48624;49.812;8.562;2022-08-21T15:45:08;3.40;;;2.05;;
62332;SDS011;48624;49.812;8.562;2022-08-21T15:47:37;4.43;;;2.40;;
62332;SDS011;48624;49.812;8.562;2022-08-21T15:50:04;6.78;;;2.42;;
62332;SDS011;48624;49.812;8.562;2022-08-21T15:52:32;5.43;;;2.05;;
62332;SDS011;48624;49.812;8.562;2022-08-21T15:55:37;4.53;;;2.55;;
62332;SDS011;48624;49.812;8.562;2022-08-21T16:00:40;3.88;;;1.92;;
62332;SDS011;48624;49.812;8.562;2022-08-21T16:03:09;4.60;;;1.73;;
62332;SDS011;48624;49.812;8.562;2022-08-21T16:05:41;4.50;;;2.13;;
62332;SDS011;48624;49.812;8.562;2022-08-21T16:08:08;3.70;;;2.08;;
62332;SDS011;48624;49.812;8.562;2022-08-21T16:10:39;2.60;;;1.70;;